createdAt,value
2019-06-07T00:01:20.989Z,15.45
2019-06-07T00:03:51.748Z,15.37
2019-06-07T00:06:24.923Z,15.32
2019-06-07T00:08:52.538Z,15.31
2019-06-07T00:11:22.066Z,15.32
2019-06-07T00:13:53.017Z,15.31
2019-06-07T00:16:23.446Z,15.28
2019-06-07T00:18:53.023Z,15.28
2019-06-07T00:22:12.028Z,15.23
2019-06-07T00:23:53.785Z,15.21
2019-06-07T00:26:23.162Z,15.19
2019-06-07T00:28:52.703Z,15.18
2019-06-07T00:31:24.495Z,15.16
2019-06-07T00:33:53.156Z,15.12
2019-06-07T00:36:23.441Z,15.08
2019-06-07T00:38:52.846Z,15.07
2019-06-07T00:41:23.083Z,15.04
2019-06-07T00:43:52.705Z,15.01
2019-06-07T00:46:25.268Z,14.98
2019-06-07T00:48:53.185Z,14.97
2019-06-07T00:51:24.091Z,14.93
2019-06-07T00:53:53.781Z,14.89
2019-06-07T00:56:23.544Z,14.85
2019-06-07T00:59:10.284Z,14.82
2019-06-07T01:01:25.545Z,14.80
2019-06-07T01:03:55.063Z,14.79
2019-06-07T01:06:25.054Z,14.75
2019-06-07T01:08:54.688Z,14.71
2019-06-07T01:11:26.095Z,14.65
2019-06-07T01:13:55.143Z,14.58
2019-06-07T01:16:26.423Z,14.44
2019-06-07T01:18:56.238Z,14.44
2019-06-07T01:21:29.627Z,14.43
2019-06-07T01:24:11.426Z,14.40
2019-06-07T01:26:30.415Z,14.40
2019-06-07T01:28:59.162Z,14.40
2019-06-07T01:31:31.499Z,14.37
2019-06-07T01:34:00.156Z,14.35
2019-06-07T01:36:31.091Z,14.34
2019-06-07T01:39:01.088Z,14.34
2019-06-07T01:41:32.119Z,14.31
2019-06-07T01:44:01.826Z,14.25
2019-06-07T01:46:31.580Z,14.22
2019-06-07T01:49:01.004Z,14.18
2019-06-07T01:51:30.912Z,14.16
2019-06-07T01:54:48.655Z,14.12
2019-06-07T01:56:32.307Z,14.07
2019-06-07T01:59:01.853Z,14.01
2019-06-07T02:01:35.145Z,13.95
2019-06-07T02:04:03.489Z,13.89
2019-06-07T02:06:32.978Z,13.85
2019-06-07T02:09:02.606Z,13.84
2019-06-07T02:11:33.645Z,13.84
2019-06-07T02:14:05.581Z,13.83
2019-06-07T02:16:34.969Z,13.80
2019-06-07T02:19:04.418Z,13.74
2019-06-07T02:21:34.687Z,13.69
2019-06-07T02:24:04.326Z,13.66
2019-06-07T02:26:34.038Z,13.65
2019-06-07T02:29:03.408Z,13.66
2019-06-07T02:31:39.096Z,13.64
2019-06-07T02:34:04.175Z,13.62
2019-06-07T02:36:41.067Z,13.58
2019-06-07T02:39:07.016Z,13.53
2019-06-07T02:41:39.897Z,13.48
2019-06-07T02:44:07.965Z,13.43
2019-06-07T02:46:46.599Z,13.37
2019-06-07T02:49:08.401Z,13.37
2019-06-07T02:51:41.674Z,13.36
2019-06-07T02:54:09.125Z,13.34
2019-06-07T02:56:53.886Z,13.36
2019-06-07T02:59:09.871Z,13.36
2019-06-07T03:01:42.259Z,13.35
2019-06-07T03:04:11.713Z,13.33
2019-06-07T03:06:43.921Z,13.31
2019-06-07T03:09:12.347Z,13.29
2019-06-07T03:11:43.122Z,13.27
2019-06-07T03:14:12.774Z,13.25
2019-06-07T03:16:48.180Z,13.21
2019-06-07T03:19:26.915Z,13.19
2019-06-07T03:21:56.279Z,13.22
2019-06-07T03:24:29.581Z,13.23
2019-06-07T03:29:28.897Z,13.23
2019-06-07T03:31:59.358Z,13.22
2019-06-07T03:34:32.905Z,13.21
2019-06-07T03:37:00.405Z,13.22
2019-06-07T03:39:31.391Z,13.22
2019-06-07T03:42:06.510Z,13.23
2019-06-07T03:44:35.857Z,13.21
2019-06-07T03:47:03.452Z,13.18
2019-06-07T03:49:37.473Z,13.17
2019-06-07T03:52:04.439Z,13.18
2019-06-07T03:54:36.964Z,13.19
2019-06-07T03:57:05.443Z,13.22
2019-06-07T03:59:37.423Z,13.20
2019-06-07T04:02:06.251Z,13.17
2019-06-07T04:04:38.475Z,13.13
2019-06-07T04:07:06.966Z,13.14
2019-06-07T04:09:41.905Z,13.17
2019-06-07T04:12:07.510Z,13.22
2019-06-07T04:14:38.474Z,13.28
2019-06-07T04:17:08.229Z,13.33
2019-06-07T04:19:42.812Z,13.35
2019-06-07T04:22:08.684Z,13.35
2019-06-07T04:24:41.866Z,13.39
2019-06-07T04:27:09.566Z,13.44
2019-06-07T04:30:03.035Z,13.48
2019-06-07T04:32:10.256Z,13.52
2019-06-07T04:34:43.280Z,13.56
2019-06-07T04:37:12.316Z,13.58
2019-06-07T04:39:45.085Z,13.63
2019-06-07T04:42:15.808Z,13.68
2019-06-07T04:44:46.705Z,13.71
2019-06-07T04:47:16.651Z,13.74
2019-06-07T04:49:48.444Z,13.78
2019-06-07T04:52:18.465Z,13.84
2019-06-07T04:54:47.846Z,13.91
2019-06-07T04:57:17.511Z,13.99
2019-06-07T05:00:12.119Z,14.05
2019-06-07T05:02:22.077Z,14.15
2019-06-07T05:04:51.426Z,14.27
2019-06-07T05:07:20.847Z,14.34
2019-06-07T05:09:50.589Z,14.42
2019-06-07T05:12:20.516Z,14.51
2019-06-07T05:14:50.203Z,14.59
2019-06-07T05:17:19.586Z,14.68
2019-06-07T05:19:49.268Z,14.80
2019-06-07T05:22:18.671Z,14.89
2019-06-07T05:24:48.622Z,14.98
2019-06-07T05:27:18.312Z,15.04
2019-06-07T05:30:08.841Z,15.15
2019-06-07T05:32:19.737Z,15.29
2019-06-07T05:34:49.302Z,15.43
2019-06-07T05:37:18.678Z,15.54
2019-06-07T05:39:48.348Z,15.67
2019-06-07T05:42:17.772Z,15.81
2019-06-07T05:44:47.370Z,15.89
2019-06-07T05:47:16.751Z,15.96
2019-06-07T05:49:47.414Z,16.04
2019-06-07T05:52:16.927Z,16.13
2019-06-07T05:54:47.115Z,16.24
2019-06-07T05:57:17.706Z,16.35
2019-06-07T05:59:47.847Z,16.53
2019-06-07T06:02:22.768Z,16.70
2019-06-07T06:04:49.500Z,16.82
2019-06-07T06:07:19.405Z,16.93
2019-06-07T06:09:48.770Z,17.05
2019-06-07T06:12:33.995Z,17.10
2019-06-07T06:14:49.582Z,17.16
2019-06-07T06:17:18.905Z,17.21
2019-06-07T06:19:53.015Z,17.38
2019-06-07T06:22:20.662Z,17.60
2019-06-07T06:25:29.917Z,17.70
2019-06-07T06:28:02.604Z,17.74
2019-06-07T06:29:52.702Z,17.81
2019-06-07T06:34:55.687Z,18.20
2019-06-07T06:37:24.727Z,18.31
2019-06-07T06:39:54.094Z,18.36
2019-06-07T06:42:23.794Z,18.38
2019-06-07T06:44:54.199Z,18.44
2019-06-07T06:47:25.444Z,18.57
2019-06-07T06:49:54.832Z,18.70
2019-06-07T06:52:24.740Z,18.82
2019-06-07T06:55:00.495Z,18.95
2019-06-07T07:00:56.833Z,19.34
2019-06-07T07:03:54.223Z,19.50
2019-06-07T07:05:54.427Z,19.57
2019-06-07T07:08:22.716Z,19.53
2019-06-07T07:11:00.633Z,19.53
2019-06-07T07:14:09.990Z,19.66
2019-06-07T07:16:54.558Z,19.74
2019-06-07T07:19:20.859Z,19.80
2019-06-07T07:21:53.112Z,19.90
2019-06-07T07:24:22.517Z,20.05
2019-06-07T07:26:54.048Z,20.12
2019-06-07T07:29:23.037Z,20.09
2019-06-07T07:31:56.207Z,20.09
2019-06-07T07:34:34.634Z,20.17
2019-06-07T07:36:59.523Z,20.24
2019-06-07T07:39:26.046Z,20.23
2019-06-07T07:48:30.056Z,20.26
2019-06-07T07:51:01.338Z,20.43
2019-06-07T07:53:47.701Z,20.56
2019-06-07T07:56:02.542Z,20.60
2019-06-07T07:58:32.535Z,20.67
2019-06-07T08:01:10.111Z,20.70
2019-06-07T08:03:32.995Z,20.75
2019-06-07T08:06:02.612Z,20.80
2019-06-07T08:08:32.261Z,20.68
2019-06-07T08:11:02.411Z,20.58
2019-06-07T08:13:32.921Z,20.58
2019-06-07T08:16:10.793Z,20.70
2019-06-07T08:18:33.689Z,20.78
2019-06-07T08:21:21.900Z,21.02
2019-06-07T08:23:34.552Z,21.03
2019-06-07T08:26:03.939Z,21.04
2019-06-07T08:28:33.609Z,21.05
2019-06-07T08:31:07.008Z,20.98
2019-06-07T08:33:34.169Z,20.92
2019-06-07T08:36:15.090Z,20.86
2019-06-07T08:38:47.699Z,20.86
2019-06-07T08:41:11.929Z,20.88
2019-06-07T08:43:36.849Z,20.77
2019-06-07T08:46:07.885Z,20.52
2019-06-07T08:48:37.690Z,20.34
2019-06-07T08:51:08.432Z,20.24
2019-06-07T08:53:38.112Z,20.19
2019-06-07T08:56:11.107Z,20.30
2019-06-07T08:58:39.098Z,20.50
2019-06-07T09:01:09.253Z,20.68
2019-06-07T09:03:39.081Z,20.85
2019-06-07T09:06:54.037Z,20.90
2019-06-07T09:08:39.860Z,20.86
2019-06-07T09:11:11.126Z,20.91
2019-06-07T09:13:40.692Z,21.04
2019-06-07T09:16:10.086Z,21.25
2019-06-07T09:18:44.207Z,21.32
2019-06-07T09:21:12.003Z,21.26
2019-06-07T09:23:41.665Z,21.45
2019-06-07T09:26:18.145Z,21.51
2019-06-07T09:28:42.357Z,21.31
2019-06-07T09:31:12.965Z,21.12
2019-06-07T09:33:42.402Z,21.26
2019-06-07T09:36:13.132Z,21.66
2019-06-07T09:38:43.012Z,22.05
2019-06-07T09:41:12.373Z,22.16
2019-06-07T09:46:15.958Z,22.01
2019-06-07T09:51:19.709Z,21.95
2019-06-07T09:53:47.131Z,22.20
2019-06-07T09:56:17.191Z,22.18
2019-06-07T09:58:52.127Z,22.18
2019-06-07T10:01:19.196Z,21.98
2019-06-07T10:03:48.885Z,21.82
2019-06-07T10:06:18.273Z,21.73
2019-06-07T10:11:19.116Z,21.83
2019-06-07T10:13:48.480Z,21.83
2019-06-07T10:16:18.221Z,21.87
2019-06-07T10:18:47.911Z,22.12
2019-06-07T10:21:17.309Z,22.24
2019-06-07T10:23:47.122Z,22.30
2019-06-07T10:26:17.217Z,22.34
2019-06-07T10:28:46.882Z,22.32
2019-06-07T10:31:17.344Z,22.29
2019-06-07T10:33:46.944Z,22.49
2019-06-07T10:36:17.304Z,22.71
2019-06-07T10:38:47.140Z,22.71
2019-06-07T10:41:17.254Z,22.62
2019-06-07T10:43:46.923Z,22.92
2019-06-07T10:46:17.918Z,23.50
2019-06-07T10:48:47.384Z,23.50
2019-06-07T10:51:17.326Z,23.62
2019-06-07T10:53:47.012Z,23.61
2019-06-07T10:56:17.271Z,23.60
2019-06-07T10:58:46.925Z,23.69
2019-06-07T11:01:17.397Z,23.83
2019-06-07T11:03:46.999Z,23.83
2019-06-07T11:06:17.380Z,24.13
2019-06-07T11:08:46.954Z,24.13
2019-06-07T11:11:17.309Z,24.28
2019-06-07T11:13:46.969Z,24.38
2019-06-07T11:16:17.423Z,24.72
2019-06-07T11:18:47.031Z,24.72
2019-06-07T11:21:18.631Z,24.64
2019-06-07T11:23:48.012Z,24.67
2019-06-07T11:26:18.638Z,24.60
2019-06-07T11:28:49.109Z,24.35
2019-06-07T11:31:18.951Z,24.20
2019-06-07T11:33:48.316Z,24.10
2019-06-07T11:36:18.897Z,24.09
2019-06-07T11:38:48.248Z,24.13
2019-06-07T11:41:17.889Z,24.11
2019-06-07T11:43:47.277Z,23.74
2019-06-07T11:46:17.472Z,23.47
2019-06-07T11:48:47.762Z,23.47
2019-06-07T11:51:18.834Z,23.46
2019-06-07T11:53:48.248Z,23.75
2019-06-07T11:56:18.150Z,24.19
2019-06-07T11:58:47.568Z,24.67
2019-06-07T12:01:18.672Z,25.38
2019-06-07T12:03:48.163Z,25.38
2019-06-07T12:06:18.110Z,25.62
2019-06-07T12:08:47.579Z,25.75
2019-06-07T12:11:18.524Z,25.85
2019-06-07T12:13:48.234Z,25.73
2019-06-07T12:16:17.605Z,25.51
2019-06-07T12:18:47.168Z,25.43
2019-06-07T12:21:18.053Z,25.34
2019-06-07T12:23:47.448Z,25.43
2019-06-07T12:26:18.697Z,25.52
2019-06-07T12:28:48.245Z,25.62
2019-06-07T12:31:19.253Z,25.65
2019-06-07T12:33:48.622Z,25.61
2019-06-07T12:36:19.837Z,25.58
2019-06-07T12:38:49.295Z,25.60
2019-06-07T12:41:20.253Z,25.64
2019-06-07T12:43:49.710Z,25.76
2019-06-07T12:46:24.889Z,25.76
2019-06-07T12:48:50.434Z,25.78
2019-06-07T12:51:21.246Z,25.77
2019-06-07T12:53:50.653Z,25.86
2019-06-07T12:56:20.307Z,26.05
2019-06-07T12:58:49.689Z,26.22
2019-06-07T13:01:20.851Z,26.33
2019-06-07T13:03:50.428Z,26.51
2019-06-07T13:06:19.786Z,26.63
2019-06-07T13:08:49.220Z,26.63
2019-06-07T13:11:24.312Z,26.65
2019-06-07T13:13:50.233Z,26.79
2019-06-07T13:16:19.985Z,26.78
2019-06-07T13:18:50.440Z,26.66
2019-06-07T13:21:20.254Z,26.52
2019-06-07T13:23:50.614Z,26.59
2019-06-07T13:26:20.619Z,26.74
2019-06-07T13:28:50.234Z,26.84
2019-06-07T13:31:20.964Z,26.79
2019-06-07T13:37:00.734Z,26.57
2019-06-07T13:39:30.427Z,26.58
2019-06-07T13:41:59.789Z,26.49
2019-06-07T13:44:29.503Z,26.29
2019-06-07T13:46:59.164Z,26.17
2019-06-07T13:49:28.780Z,26.24
2019-06-07T13:51:58.311Z,26.44
2019-06-07T13:54:27.873Z,26.63
2019-06-07T13:57:02.270Z,26.89
2019-06-07T13:59:28.791Z,27.04
2019-06-07T14:01:58.316Z,27.05
2019-06-07T14:04:29.233Z,27.01
2019-06-07T14:06:58.543Z,27.05
2019-06-07T14:09:29.597Z,27.03
2019-06-07T14:12:00.589Z,26.96
2019-06-07T14:14:30.988Z,26.82
2019-06-07T14:17:00.397Z,26.82
2019-06-07T14:19:30.742Z,26.86
2019-06-07T14:22:00.429Z,27.01
2019-06-07T14:24:31.108Z,27.02
2019-06-07T14:27:06.529Z,26.99
2019-06-07T14:29:36.869Z,27.11
2019-06-07T14:32:07.458Z,27.13
2019-06-07T14:34:37.794Z,27.23
2019-06-07T14:37:07.441Z,27.23
2019-06-07T14:39:36.823Z,27.21
2019-06-07T14:42:09.773Z,27.15
2019-06-07T14:44:37.770Z,27.06
2019-06-07T14:47:07.467Z,26.94
2019-06-07T14:49:36.828Z,26.86
2019-06-07T14:52:06.656Z,26.80
2019-06-07T14:54:39.033Z,26.80
2019-06-07T14:57:07.530Z,26.76
2019-06-07T14:59:36.896Z,26.72
2019-06-07T15:02:06.690Z,26.73
2019-06-07T15:04:39.778Z,26.73
2019-06-07T15:07:11.085Z,26.81
2019-06-07T15:09:40.449Z,27.05
2019-06-07T15:12:24.106Z,27.18
2019-06-07T15:14:41.167Z,27.36
2019-06-07T15:17:10.559Z,27.39
2019-06-07T15:19:39.919Z,27.31
2019-06-07T15:22:09.482Z,27.20
2019-06-07T15:24:40.555Z,27.12
2019-06-07T15:27:10.976Z,27.05
2019-06-07T15:29:40.567Z,27.06
2019-06-07T15:32:09.942Z,27.09
2019-06-07T15:34:39.517Z,27.03
2019-06-07T15:37:08.899Z,27.09
2019-06-07T15:39:38.755Z,27.10
2019-06-07T15:42:08.216Z,27.09
2019-06-07T15:44:37.582Z,26.95
2019-06-07T15:47:06.959Z,26.78
2019-06-07T15:49:36.543Z,26.74
2019-06-07T15:52:05.922Z,26.77
2019-06-07T15:54:36.462Z,26.81
2019-06-07T15:57:05.859Z,26.79
2019-06-07T15:59:35.821Z,26.69
2019-06-07T16:02:06.555Z,26.59
2019-06-07T16:04:37.656Z,26.55
2019-06-07T16:07:07.033Z,26.47
2019-06-07T16:09:36.521Z,26.46
2019-06-07T16:12:05.961Z,26.46
2019-06-07T16:14:36.956Z,26.50
2019-06-07T16:17:06.679Z,26.57
2019-06-07T16:19:41.043Z,26.65
2019-06-07T16:22:07.114Z,26.69
2019-06-07T16:24:37.654Z,26.61
2019-06-07T16:27:07.093Z,26.61
2019-06-07T16:29:36.671Z,26.37
2019-06-07T16:35:13.513Z,26.00
2019-06-07T16:37:43.174Z,25.96
2019-06-07T16:40:15.565Z,26.02
2019-06-07T16:42:45.256Z,26.12
2019-06-07T16:45:15.534Z,26.22
2019-06-07T16:47:47.461Z,26.22
2019-06-07T16:50:16.056Z,26.20
2019-06-07T16:55:45.933Z,26.16
2019-06-07T16:58:15.655Z,26.18
2019-06-07T17:00:46.478Z,26.28
2019-06-07T17:03:15.925Z,26.29
2019-06-07T17:05:48.410Z,26.26
2019-06-07T17:08:18.099Z,26.16
2019-06-07T17:10:49.113Z,25.94
2019-06-07T17:13:32.519Z,25.79
2019-06-07T17:15:49.919Z,25.65
2019-06-07T17:18:19.946Z,25.51
2019-06-07T17:20:49.519Z,25.37
2019-06-07T17:23:19.046Z,25.29
2019-06-07T17:25:49.775Z,25.25
2019-06-07T17:28:20.211Z,25.19
2019-06-07T17:30:50.361Z,25.11
2019-06-07T17:33:19.958Z,25.02
2019-06-07T17:35:50.645Z,24.96
2019-06-07T17:38:20.083Z,24.96
2019-06-07T17:40:51.110Z,24.95
2019-06-07T17:43:20.813Z,24.94
2019-06-07T17:45:52.200Z,24.84
2019-06-07T17:48:23.961Z,24.73
2019-06-07T17:50:52.867Z,24.67
2019-06-07T17:53:22.277Z,24.62
2019-06-07T17:55:52.402Z,24.56
2019-06-07T17:58:21.749Z,24.50
2019-06-07T18:00:53.060Z,24.44
2019-06-07T18:03:22.603Z,24.41
2019-06-07T18:05:53.825Z,24.36
2019-06-07T18:08:24.756Z,24.28
2019-06-07T18:10:54.310Z,24.22
2019-06-07T18:13:23.949Z,24.15
2019-06-07T18:15:58.786Z,24.14
2019-06-07T18:18:24.389Z,24.17
2019-06-07T18:20:53.765Z,24.17
2019-06-07T18:23:23.261Z,24.16
2019-06-07T18:25:52.678Z,24.13
2019-06-07T18:28:22.257Z,24.10
2019-06-07T18:31:12.625Z,24.06
2019-06-07T18:33:55.147Z,24.04
2019-06-07T18:36:27.728Z,24.01
2019-06-07T18:38:59.294Z,24.00
2019-06-07T18:41:28.767Z,23.96
2019-06-07T18:43:59.355Z,23.89
2019-06-07T18:46:28.744Z,23.73
2019-06-07T18:48:58.787Z,23.56
2019-06-07T18:51:28.770Z,23.22
2019-06-07T18:53:58.150Z,23.22
2019-06-07T18:56:27.551Z,21.43
2019-06-07T18:58:56.931Z,19.22
2019-06-07T19:01:27.391Z,17.78
2019-06-07T19:03:58.137Z,17.05
2019-06-07T19:06:27.680Z,16.78
2019-06-07T19:08:59.321Z,16.67
2019-06-07T19:11:28.889Z,16.67
2019-06-07T19:13:59.317Z,16.73
2019-06-07T19:16:28.705Z,16.86
2019-06-07T19:18:58.366Z,17.07
2019-06-07T19:21:27.735Z,17.23
2019-06-07T19:23:58.029Z,17.24
2019-06-07T19:26:27.649Z,17.18
2019-06-07T19:28:57.021Z,17.07
2019-06-07T19:31:26.588Z,17.14
2019-06-07T19:33:57.170Z,17.12
2019-06-07T19:36:26.583Z,17.18
2019-06-07T19:38:55.975Z,17.22
2019-06-07T19:41:25.659Z,17.30
2019-06-07T19:43:56.223Z,17.36
2019-06-07T19:46:25.619Z,17.42
2019-06-07T19:48:56.546Z,17.45
2019-06-07T19:51:25.909Z,17.52
2019-06-07T19:53:57.111Z,17.55
2019-06-07T19:56:26.683Z,17.55
2019-06-07T19:58:57.521Z,17.53
2019-06-07T20:01:26.966Z,17.53
2019-06-07T20:03:57.953Z,17.53
2019-06-07T20:06:27.603Z,17.54
2019-06-07T20:08:58.675Z,17.51
2019-06-07T20:11:28.125Z,17.49
2019-06-07T20:13:58.546Z,17.49
2019-06-07T20:16:27.953Z,17.51
2019-06-07T20:18:58.131Z,17.55
2019-06-07T20:21:27.897Z,17.63
2019-06-07T20:24:00.212Z,17.71
2019-06-07T20:26:28.962Z,17.71
2019-06-07T20:28:59.284Z,17.74
2019-06-07T20:31:28.709Z,17.75
2019-06-07T20:33:58.689Z,17.77
2019-06-07T20:36:28.034Z,17.73
2019-06-07T20:38:58.012Z,17.77
2019-06-07T20:41:27.690Z,17.77
2019-06-07T20:43:57.632Z,17.86
2019-06-07T20:46:27.071Z,17.88
2019-06-07T20:48:58.030Z,17.84
2019-06-07T20:51:27.774Z,17.80
2019-06-07T20:53:58.476Z,17.82
2019-06-07T20:56:27.904Z,17.76
2019-06-07T20:58:58.438Z,17.74
2019-06-07T21:01:27.868Z,17.68
2019-06-07T21:03:58.986Z,17.63
2019-06-07T21:06:28.357Z,17.58
2019-06-07T21:08:59.252Z,17.52
2019-06-07T21:11:28.921Z,17.52
2019-06-07T21:13:58.297Z,17.52
2019-06-07T21:16:27.875Z,17.49
2019-06-07T21:18:57.261Z,17.46
2019-06-07T21:21:26.878Z,17.45
2019-06-07T21:23:56.258Z,17.43
2019-06-07T21:26:26.941Z,17.36
2019-06-07T21:28:56.361Z,17.34
2019-06-07T21:31:25.960Z,17.31
2019-06-07T21:33:56.252Z,17.28
2019-06-07T21:36:25.880Z,17.26
2019-06-07T21:38:56.264Z,17.23
2019-06-07T21:41:25.982Z,17.19
2019-06-07T21:43:56.322Z,17.18
2019-06-07T21:46:25.949Z,17.16
2019-06-07T21:48:56.275Z,17.18
2019-06-07T21:51:26.070Z,17.19
2019-06-07T21:53:56.232Z,17.21
2019-06-07T21:56:25.919Z,17.24
2019-06-07T21:58:56.342Z,17.22
2019-06-07T22:01:27.512Z,17.15
2019-06-07T22:03:57.213Z,17.03
2019-06-07T22:06:26.935Z,16.94
2019-06-07T22:08:56.340Z,16.89
2019-06-07T22:11:26.308Z,16.91
2019-06-07T22:13:56.391Z,16.98
2019-06-07T22:16:29.225Z,17.01
2019-06-07T22:18:57.337Z,16.95
2019-06-07T22:21:26.944Z,16.90
2019-06-07T22:23:56.351Z,16.92
2019-06-07T22:26:26.062Z,16.89
2019-06-07T22:28:56.407Z,16.79
2019-06-07T22:31:26.081Z,16.74
2019-06-07T22:33:56.365Z,16.71
2019-06-07T22:36:25.964Z,16.67
2019-06-07T22:38:56.314Z,16.63
2019-06-07T22:41:25.962Z,16.59
2019-06-07T22:43:56.745Z,16.57
2019-06-07T22:46:36.964Z,16.51
2019-06-07T22:48:57.336Z,16.43
2019-06-07T22:51:27.139Z,16.36
2019-06-07T22:53:56.516Z,16.29
2019-06-07T22:56:39.589Z,16.20
2019-06-07T22:59:13.709Z,16.17
2019-06-07T23:01:40.571Z,16.14
2019-06-07T23:04:10.440Z,16.09
2019-06-07T23:06:40.068Z,16.03
2019-06-07T23:09:10.838Z,16.00
2019-06-07T23:11:40.448Z,15.97
2019-06-07T23:14:11.215Z,15.99
2019-06-07T23:16:54.360Z,15.99
2019-06-07T23:19:12.007Z,16.03
2019-06-07T23:21:42.372Z,16.01
2019-06-07T23:24:12.044Z,16.01
2019-06-07T23:26:41.493Z,16.00
2019-06-07T23:29:10.877Z,15.99
2019-06-07T23:31:40.452Z,15.97
2019-06-07T23:34:10.504Z,15.96
2019-06-07T23:36:39.879Z,15.96
2019-06-07T23:39:10.882Z,16.00
2019-06-07T23:41:40.523Z,16.06
2019-06-07T23:44:11.002Z,16.11
2019-06-07T23:46:40.498Z,16.13
2019-06-07T23:49:09.881Z,16.16
2019-06-07T23:51:39.425Z,16.16
2019-06-07T23:54:09.089Z,16.15
2019-06-07T23:56:38.604Z,16.13
2019-06-07T23:59:08.260Z,16.09
